Time;durP1;ratioP1;P1;durP2;ratioP2;P2;SDS_P1;SDS_P2;PMS_P1;PMS_P2;Temp;Humidity;BMP_temperature;BMP_pressure;BME280_temperature;BME280_humidity;BME280_pressure;Samples;Min_cycle;Max_cycle;Signal;HPM_P1;HPM_P2
2022/07/21 00:00:28;;;;;;;33.30;30.10;;;20.10;99.90;;;20.85;100.00;98193.53;5137281;28;20204;-64
2022/07/21 00:03:01;;;;;;;36.13;32.25;;;20.10;99.90;;;20.78;100.00;98179.53;5141500;28;20219;-64
2022/07/21 00:05:35;;;;;;;34.10;30.92;;;20.00;99.90;;;20.81;100.00;98181.31;5141323;28;20203;-64
2022/07/21 00:08:09;;;;;;;33.33;30.23;;;20.00;99.90;;;20.69;100.00;98176.75;5142298;28;20306;-64
2022/07/21 00:10:43;;;;;;;35.38;31.95;;;19.90;99.90;;;20.73;100.00;98168.16;5141878;28;20250;-64
2022/07/21 00:13:16;;;;;;;38.50;34.88;;;20.00;99.90;;;20.74;100.00;98156.03;5140257;28;20254;-64
2022/07/21 00:15:49;;;;;;;33.45;30.27;;;20.10;99.90;;;20.76;100.00;98149.16;5138329;28;20227;-64
2022/07/21 00:18:23;;;;;;;32.35;29.48;;;20.00;99.90;;;20.72;100.00;98162.91;5137375;28;20295;-64
2022/07/21 00:20:56;;;;;;;32.80;30.00;;;19.90;99.90;;;20.66;100.00;98174.94;5136761;28;20685;-64
2022/07/21 00:23:31;;;;;;;32.97;29.95;;;19.80;99.90;;;20.65;100.00;98191.34;5134386;28;20267;-64
2022/07/21 00:26:04;;;;;;;38.30;34.58;;;19.80;99.90;;;20.62;100.00;98206.88;5141025;28;20234;-64
2022/07/21 00:28:37;;;;;;;34.10;31.13;;;19.80;99.90;;;20.59;100.00;98208.53;5134462;28;20259;-64
2022/07/21 00:31:11;;;;;;;34.13;30.92;;;19.80;99.90;;;20.55;100.00;98207.59;5137432;28;20279;-64
2022/07/21 00:33:44;;;;;;;32.05;29.05;;;19.80;99.90;;;20.51;100.00;98204.84;5136955;28;20287;-64
2022/07/21 00:36:17;;;;;;;32.65;29.58;;;19.70;99.90;;;20.49;100.00;98212.63;5142070;28;20239;-64
2022/07/21 00:38:52;;;;;;;32.15;29.38;;;19.70;99.90;;;20.46;100.00;98217.75;5141814;28;20262;-64
2022/07/21 00:41:26;;;;;;;30.92;28.30;;;19.60;99.90;;;20.38;100.00;98214.06;5142387;28;20223;-64
2022/07/21 00:44:00;;;;;;;33.88;30.70;;;19.60;99.90;;;20.41;100.00;98203.75;5141700;28;20893;-64
2022/07/21 00:46:33;;;;;;;33.22;30.23;;;19.60;99.90;;;20.39;100.00;98202.84;5143073;28;20200;-64
2022/07/21 00:49:06;;;;;;;32.60;29.67;;;19.60;99.90;;;20.39;100.00;98198.50;5142347;28;20231;-64
2022/07/21 00:51:39;;;;;;;32.83;29.83;;;19.60;99.90;;;20.39;100.00;98205.44;5141881;28;20758;-65
2022/07/21 00:54:16;;;;;;;33.53;30.45;;;19.60;99.90;;;20.40;100.00;98221.06;5142480;28;20246;-64
2022/07/21 00:56:49;;;;;;;38.25;34.28;;;19.70;99.90;;;20.47;100.00;98232.47;5135278;28;20199;-65
2022/07/21 00:59:23;;;;;;;34.83;31.58;;;19.70;99.90;;;20.49;100.00;98212.63;5137768;28;20235;-64
2022/07/21 01:01:57;;;;;;;30.73;28.13;;;19.70;99.90;;;20.42;100.00;98213.28;5140526;28;20222;-64
2022/07/21 01:04:30;;;;;;;32.28;29.27;;;19.60;99.90;;;20.43;100.00;98207.25;5140360;28;20231;-64
2022/07/21 01:07:05;;;;;;;32.13;29.23;;;19.60;99.90;;;20.42;100.00;98200.31;5140056;28;20201;-64
2022/07/21 01:09:40;;;;;;;34.90;31.70;;;19.60;99.90;;;20.40;100.00;98202.00;5136307;28;20568;-64
2022/07/21 01:12:13;;;;;;;32.58;29.58;;;19.60;99.90;;;20.45;100.00;98202.97;5136772;28;20256;-64
2022/07/21 01:14:47;;;;;;;34.22;31.05;;;19.70;99.90;;;20.41;100.00;98209.81;5139519;28;20215;-64
2022/07/21 01:17:20;;;;;;;32.47;29.52;;;19.60;99.90;;;20.42;100.00;98228.88;5139989;28;20539;-64
2022/07/21 01:19:53;;;;;;;32.25;29.38;;;19.70;99.90;;;20.41;100.00;98224.53;5139944;28;20227;-64
2022/07/21 01:22:28;;;;;;;31.30;28.50;;;19.60;99.90;;;20.41;100.00;98215.03;5142659;28;20255;-64
2022/07/21 01:25:01;;;;;;;31.92;28.98;;;19.60;99.90;;;20.43;100.00;98231.53;5141101;28;20239;-64
2022/07/21 01:27:35;;;;;;;32.00;29.00;;;19.60;99.90;;;20.40;100.00;98225.34;5131718;28;20208;-64
2022/07/21 01:30:10;;;;;;;31.13;28.42;;;19.60;99.90;;;20.37;100.00;98223.56;5136852;28;20236;-64
2022/07/21 01:32:44;;;;;;;30.25;27.70;;;19.50;99.90;;;20.37;100.00;98204.50;5141642;28;20231;-64
2022/07/21 01:35:17;;;;;;;29.42;26.90;;;19.50;99.90;;;20.41;100.00;98208.97;5141772;28;20223;-63
2022/07/21 01:37:52;;;;;;;31.75;28.90;;;19.60;99.90;;;20.43;100.00;98212.44;5141153;28;20650;-64
2022/07/21 01:43:30;;;;;;;33.53;30.40;;;19.60;99.90;;;20.47;100.00;98229.88;5120203;29;20654;-65
2022/07/21 01:46:03;;;;;;;32.28;29.30;;;19.60;99.90;;;20.48;100.00;98223.81;5118943;29;20299;-64
2022/07/21 01:48:37;;;;;;;30.60;27.80;;;19.60;99.90;;;20.37;100.00;98207.09;5126013;28;20232;-65
2022/07/21 01:51:10;;;;;;;32.22;29.08;;;19.60;99.90;;;20.30;100.00;98207.81;5142770;28;20224;-64
2022/07/21 01:53:45;;;;;;;34.42;31.15;;;19.40;99.90;;;20.27;100.00;98223.31;5141905;28;20204;-64
2022/07/21 01:56:21;;;;;;;36.08;32.58;;;19.40;99.90;;;20.24;100.00;98221.53;5142310;28;20195;-63
2022/07/21 01:58:57;;;;;;;36.75;33.03;;;19.40;99.90;;;20.32;100.00;98219.13;5144559;28;20204;-63
2022/07/21 02:01:31;;;;;;;36.88;33.35;;;19.60;99.90;;;20.37;100.00;98235.66;5142077;28;20219;-64
2022/07/21 02:04:06;;;;;;;36.33;32.97;;;19.60;99.90;;;20.42;100.00;98241.84;5144393;28;20200;-64
2022/07/21 02:06:40;;;;;;;34.78;31.52;;;19.60;99.90;;;20.42;100.00;98244.47;5145078;28;20298;-64
2022/07/21 02:09:14;;;;;;;32.63;29.38;;;19.60;99.90;;;20.45;100.00;98241.94;5138523;28;20287;-64
2022/07/21 02:11:47;;;;;;;32.20;29.15;;;19.50;99.90;;;20.43;100.00;98254.91;5144663;28;20274;-64
2022/07/21 02:14:21;;;;;;;29.95;27.30;;;19.50;99.90;;;20.48;100.00;98267.97;5144136;28;20211;-64
2022/07/21 02:16:54;;;;;;;30.85;28.15;;;19.60;99.90;;;20.47;100.00;98271.41;5145484;28;20661;-64
2022/07/21 02:19:27;;;;;;;31.90;29.10;;;19.60;99.90;;;20.47;100.00;98271.41;5146165;28;20208;-64
2022/07/21 02:22:00;;;;;;;29.13;26.63;;;19.50;99.90;;;20.47;100.00;98280.09;5143275;28;20232;-64
2022/07/21 02:24:35;;;;;;;30.83;28.13;;;19.60;99.90;;;20.49;100.00;98285.34;5143200;28;20247;-64
2022/07/21 02:27:08;;;;;;;29.77;27.10;;;19.60;99.90;;;20.42;100.00;98293.78;5142040;28;20251;-63
2022/07/21 02:29:42;;;;;;;30.48;27.67;;;19.60;99.90;;;20.41;100.00;98297.25;5145545;28;20247;-64
2022/07/21 02:32:15;;;;;;;30.67;27.83;;;19.50;99.90;;;20.45;100.00;98304.25;5142176;28;20252;-64
2022/07/21 02:34:48;;;;;;;29.48;26.90;;;19.60;99.90;;;20.52;100.00;98310.47;5141184;28;20231;-64
2022/07/21 02:37:21;;;;;;;31.70;29.02;;;19.50;99.90;;;20.51;100.00;98314.78;5139010;28;20232;-64
2022/07/21 02:39:56;;;;;;;30.95;28.15;;;19.60;99.90;;;20.51;100.00;98303.53;5143672;28;20231;-64
2022/07/21 02:42:29;;;;;;;30.08;27.35;;;19.60;99.90;;;20.30;100.00;98296.97;5144150;28;20246;-64
2022/07/21 02:45:02;;;;;;;31.27;28.55;;;19.50;99.90;;;20.35;100.00;98291.91;5144297;28;20220;-64
2022/07/21 02:47:50;;;;;;;30.73;27.95;;;19.70;99.90;;;20.35;100.00;98273.72;5138559;28;20204;-64
2022/07/21 02:50:26;;;;;;;31.75;28.88;;;19.60;99.90;;;20.34;100.00;98256.38;5139043;28;20191;-63
2022/07/21 02:53:02;;;;;;;30.98;28.20;;;19.60;99.90;;;20.33;100.00;98252.91;5140307;28;20223;-63
2022/07/21 02:55:40;;;;;;;34.22;31.05;;;19.60;99.90;;;20.34;100.00;98264.16;5142550;28;20227;-62
2022/07/21 02:58:17;;;;;;;35.42;32.00;;;19.60;99.90;;;20.36;100.00;98283.25;5144846;28;20227;-63
2022/07/21 03:00:52;;;;;;;35.92;32.60;;;19.70;99.90;;;20.38;100.00;98295.44;5142225;28;20648;-63
2022/07/21 03:03:28;;;;;;;37.55;33.88;;;19.70;99.90;;;20.42;100.00;98299.00;5140079;28;20295;-63
2022/07/21 03:06:02;;;;;;;37.22;33.88;;;19.80;99.90;;;20.43;100.00;98292.94;5143383;28;20285;-63
2022/07/21 03:08:35;;;;;;;32.72;29.75;;;19.70;99.90;;;20.41;100.00;98292.91;5140643;28;20652;-64
2022/07/21 03:11:10;;;;;;;36.35;32.95;;;19.70;99.90;;;20.40;100.00;98292.88;5142184;28;20277;-63
2022/07/21 03:13:43;;;;;;;35.65;32.28;;;19.60;99.90;;;20.39;100.00;98278.16;5144221;28;20203;-64
2022/07/21 03:16:16;;;;;;;34.67;31.60;;;19.60;99.90;;;20.25;100.00;98273.47;5143049;28;20196;-63
2022/07/21 03:18:49;;;;;;;33.40;30.50;;;19.60;99.90;;;20.26;100.00;98264.00;5143459;28;20212;-63
2022/07/21 03:21:23;;;;;;;35.00;31.73;;;19.60;99.90;;;20.30;100.00;98263.22;5143033;28;20606;-64
2022/07/21 03:23:56;;;;;;;38.28;34.55;;;19.60;99.90;;;20.32;100.00;98263.25;5145607;28;20271;-64
2022/07/21 03:26:31;;;;;;;38.40;34.80;;;19.60;99.90;;;20.34;100.00;98265.03;5141307;28;20227;-63
2022/07/21 03:29:05;;;;;;;34.00;30.90;;;19.70;99.90;;;20.35;100.00;98261.63;5144040;28;20270;-64
2022/07/21 03:31:38;;;;;;;37.55;33.95;;;19.70;99.90;;;20.30;100.00;98259.75;5137332;28;20271;-63
2022/07/21 03:34:11;;;;;;;38.67;34.97;;;19.60;99.90;;;20.32;100.00;98269.34;5144918;28;20196;-63
2022/07/21 03:36:44;;;;;;;37.55;33.97;;;19.70;99.90;;;20.35;100.00;98266.81;5139285;28;20196;-64
2022/07/21 03:39:17;;;;;;;35.83;32.47;;;19.70;99.90;;;20.35;100.00;98269.41;5139241;28;20201;-64
2022/07/21 03:41:52;;;;;;;33.60;30.52;;;19.60;99.90;;;20.32;100.00;98268.47;5138352;28;20313;-64
2022/07/21 03:44:25;;;;;;;35.20;32.00;;;19.60;99.90;;;20.30;100.00;98268.41;5141652;28;20238;-63
2022/07/21 03:46:59;;;;;;;34.90;31.70;;;19.60;99.90;;;20.29;100.00;98270.94;5143800;28;20251;-65
2022/07/21 03:49:32;;;;;;;38.28;34.45;;;19.60;99.90;;;20.30;100.00;98283.09;5137862;28;20219;-64
2022/07/21 03:52:06;;;;;;;36.63;33.20;;;19.60;99.90;;;20.28;100.00;98287.38;5138925;28;20255;-64
2022/07/21 03:54:39;;;;;;;37.45;34.05;;;19.50;99.90;;;20.29;100.00;98289.13;5145279;28;20204;-65
2022/07/21 03:57:13;;;;;;;36.80;33.47;;;19.60;99.90;;;20.28;100.00;98285.66;5139219;28;20242;-64
2022/07/21 03:59:47;;;;;;;37.60;33.90;;;19.60;99.90;;;20.32;100.00;98295.28;5142873;28;20261;-64
2022/07/21 04:02:20;;;;;;;37.80;34.15;;;19.60;99.90;;;20.35;100.00;98295.38;5136907;28;20638;-65
2022/07/21 04:04:53;;;;;;;37.65;34.10;;;19.70;99.90;;;20.42;100.00;98306.78;5141301;28;20192;-64
2022/07/21 04:07:26;;;;;;;37.25;33.65;;;19.80;99.90;;;20.44;100.00;98299.91;5136958;28;20225;-64
2022/07/21 04:09:59;;;;;;;36.30;32.97;;;19.80;99.90;;;20.42;100.00;98293.78;5129850;28;20295;-64
2022/07/21 04:12:34;;;;;;;36.28;32.92;;;19.70;99.90;;;20.40;100.00;98308.44;5137543;28;20695;-63
2022/07/21 04:15:09;;;;;;;33.70;30.52;;;19.60;99.90;;;20.36;100.00;98320.47;5135591;28;20262;-63
2022/07/21 04:17:43;;;;;;;34.90;31.67;;;19.60;99.90;;;20.40;100.00;98317.16;5140503;28;20388;-64
2022/07/21 04:20:17;;;;;;;37.92;34.05;;;19.70;99.90;;;20.47;100.00;98323.38;5143599;28;20200;-62
2022/07/21 04:22:51;;;;;;;39.95;36.00;;;19.80;99.90;;;20.42;100.00;98304.19;5136164;28;20255;-61
2022/07/21 04:25:24;;;;;;;34.55;31.48;;;19.70;99.90;;;20.41;100.00;98315.44;5134923;28;20615;-62
2022/07/21 04:27:59;;;;;;;35.95;32.65;;;19.70;99.90;;;20.42;100.00;98324.97;5132183;28;20244;-62
2022/07/21 04:30:33;;;;;;;35.22;32.13;;;19.70;99.90;;;20.43;100.00;98326.69;5140303;28;20254;-61
2022/07/21 04:33:07;;;;;;;34.65;31.27;;;19.70;99.90;;;20.35;100.00;98338.63;5137577;28;20668;-59
2022/07/21 04:35:40;;;;;;;34.05;30.85;;;19.50;99.90;;;20.43;100.00;98332.81;5139529;28;20251;-62
2022/07/21 04:38:14;;;;;;;35.00;31.70;;;19.70;99.90;;;20.48;100.00;98338.09;5143243;28;20282;-61
2022/07/21 04:40:47;;;;;;;31.58;28.75;;;19.70;99.90;;;20.43;100.00;98326.69;5143021;28;20212;-61
2022/07/21 04:43:21;;;;;;;29.40;26.83;;;19.70;99.90;;;20.37;100.00;98336.94;5138540;28;20243;-61
2022/07/21 04:45:56;;;;;;;30.20;27.33;;;19.60;99.90;;;20.37;100.00;98340.41;5140888;28;20224;-62
2022/07/21 04:48:29;;;;;;;29.27;26.67;;;19.60;99.90;;;20.46;100.00;98342.41;5140024;28;20207;-65
2022/07/21 04:51:02;;;;;;;30.55;27.98;;;19.60;99.90;;;20.49;100.00;98345.06;5134573;28;20640;-65
2022/07/21 04:53:35;;;;;;;30.67;28.08;;;19.60;99.90;;;20.56;100.00;98346.13;5144983;28;20220;-65
2022/07/21 04:56:08;;;;;;;31.83;28.85;;;19.70;99.90;;;20.57;100.00;98340.94;5135173;28;20545;-65
2022/07/21 04:58:43;;;;;;;26.65;24.30;;;19.70;99.90;;;20.59;100.00;98354.88;5132234;28;20200;-66
2022/07/21 05:01:18;;;;;;;26.58;24.38;;;19.70;99.90;;;20.67;100.00;98348.16;5134395;28;20319;-65
2022/07/21 05:03:51;;;;;;;25.55;23.15;;;19.70;99.90;;;20.68;100.00;98343.81;5141584;28;20207;-64
2022/07/21 05:06:25;;;;;;;25.50;23.35;;;19.80;99.90;;;20.62;100.00;98344.56;5136723;28;20587;-67
2022/07/21 05:08:59;;;;;;;23.98;21.98;;;19.70;99.90;;;20.57;100.00;98340.09;5137971;28;20211;-66
2022/07/21 05:11:32;;;;;;;24.85;22.70;;;19.70;99.90;;;20.49;100.00;98345.06;5134564;28;20232;-66
2022/07/21 05:14:07;;;;;;;24.17;21.98;;;19.60;99.90;;;20.56;100.00;98349.59;5128247;28;20196;-65
2022/07/21 05:16:47;;;;;;;24.63;22.63;;;19.60;99.90;;;20.60;100.00;98355.75;5139166;28;20199;-64
2022/07/21 05:19:21;;;;;;;26.67;24.27;;;19.70;99.90;;;20.58;100.00;98362.63;5139532;28;20219;-65
2022/07/21 05:21:54;;;;;;;26.48;24.27;;;19.70;99.90;;;20.55;100.00;98358.25;5134364;28;20259;-64
2022/07/21 05:24:27;;;;;;;26.65;24.35;;;19.70;99.90;;;20.63;100.00;98356.72;5133306;28;20290;-66
2022/07/21 05:27:00;;;;;;;28.27;25.88;;;19.80;99.90;;;20.67;100.00;98357.66;5139185;28;20231;-65
2022/07/21 05:29:35;;;;;;;26.17;23.80;;;19.90;99.90;;;20.72;100.00;98365.56;5133005;28;20255;-65
2022/07/21 05:32:08;;;;;;;25.85;23.63;;;19.90;99.90;;;20.77;100.00;98367.44;5130324;28;20271;-66
2022/07/21 05:34:41;;;;;;;24.77;22.67;;;19.80;99.90;;;20.81;100.00;98364.09;5131853;28;20325;-64
2022/07/21 05:37:15;;;;;;;25.58;23.48;;;19.80;99.90;;;20.77;100.00;98358.75;5133975;28;20232;-64
2022/07/21 05:39:48;;;;;;;24.48;22.48;;;19.80;99.90;;;20.77;100.00;98361.38;5133040;28;20282;-65
2022/07/21 05:42:21;;;;;;;26.00;23.70;;;19.80;99.90;;;20.88;100.00;98360.78;5137606;28;20224;-65
2022/07/21 05:44:56;;;;;;;24.83;22.60;;;19.90;99.90;;;20.92;100.00;98359.16;5134915;28;20621;-65
2022/07/21 05:47:31;;;;;;;23.58;21.58;;;20.00;99.90;;;20.97;100.00;98351.44;5132275;28;20235;-65
2022/07/21 05:50:06;;;;;;;23.25;21.15;;;20.00;99.90;;;21.05;100.00;98347.31;5128206;28;20633;-64
2022/07/21 05:52:39;;;;;;;22.67;20.77;;;20.00;99.90;;;21.01;100.00;98351.56;5134368;28;20271;-65
2022/07/21 05:55:12;;;;;;;23.63;21.52;;;20.00;99.90;;;21.08;100.00;98350.00;5135065;28;20199;-65
2022/07/21 05:57:46;;;;;;;22.60;20.60;;;20.00;99.90;;;21.08;100.00;98369.06;5139698;28;20615;-65
2022/07/21 06:00:20;;;;;;;23.10;21.08;;;20.10;99.90;;;21.09;100.00;98368.25;5132948;28;20201;-64
2022/07/21 06:02:54;;;;;;;22.85;20.83;;;20.10;99.90;;;21.04;100.00;98380.25;5132248;28;20250;-66
2022/07/21 06:05:27;;;;;;;23.13;21.15;;;20.00;99.90;;;21.14;100.00;98379.59;5130400;28;20653;-65
2022/07/21 06:08:00;;;;;;;24.23;22.13;;;20.10;99.90;;;21.32;100.00;98386.97;5128346;28;20319;-65
2022/07/21 06:10:34;;;;;;;23.73;21.73;;;20.30;99.90;;;21.56;100.00;98396.19;5133573;28;20668;-64
2022/07/21 06:13:07;;;;;;;22.27;20.48;;;20.40;99.90;;;21.71;100.00;98390.44;5129099;28;20614;-65
2022/07/21 06:15:41;;;;;;;23.15;21.17;;;20.50;99.90;;;21.67;100.00;98393.84;5138074;28;20314;-66
2022/07/21 06:18:14;;;;;;;22.05;20.25;;;20.50;99.90;;;21.70;100.00;98393.91;5136144;28;20238;-65
2022/07/21 06:20:48;;;;;;;22.63;20.70;;;20.60;99.90;;;21.77;100.00;98396.66;5129449;28;20283;-64
2022/07/21 06:23:21;;;;;;;21.75;20.05;;;20.70;99.90;;;22.00;100.00;98396.25;5135472;28;20328;-64
2022/07/21 06:25:54;;;;;;;23.80;21.73;;;20.90;99.90;;;22.46;100.00;98400.69;5130302;28;20290;-65
2022/07/21 06:28:27;;;;;;;21.92;20.05;;;21.30;99.90;;;23.00;100.00;98391.22;5137955;28;20255;-65
2022/07/21 06:31:02;;;;;;;20.70;19.15;;;21.60;99.90;;;23.07;99.64;98394.81;5131710;28;20280;-64
2022/07/21 06:33:35;;;;;;;20.50;18.80;;;21.60;99.90;;;23.05;98.97;98396.50;5132304;28;20266;-64
2022/07/21 06:36:09;;;;;;;18.45;16.95;;;21.70;99.90;;;23.14;99.18;98405.34;5139527;28;20216;-65
2022/07/21 06:38:44;;;;;;;20.48;18.80;;;21.80;99.90;;;22.98;96.38;98407.69;5141925;28;20236;-65
2022/07/21 06:41:17;;;;;;;20.10;18.50;;;21.70;99.90;;;22.58;94.19;98409.59;5142237;28;20234;-65
2022/07/21 06:43:50;;;;;;;20.25;18.35;;;21.50;99.90;;;22.38;96.13;98411.81;5141580;28;20228;-65
2022/07/21 06:46:25;;;;;;;19.77;18.10;;;21.30;99.90;;;22.16;97.59;98415.69;5130621;28;20615;-64
2022/07/21 06:48:59;;;;;;;20.83;19.05;;;21.10;99.90;;;21.99;99.92;98416.22;5137718;28;20220;-66
2022/07/21 06:51:32;;;;;;;20.48;18.77;;;21.00;99.90;;;21.85;100.00;98408.97;5144337;28;20232;-64
2022/07/21 06:54:05;;;;;;;21.00;19.30;;;20.90;99.90;;;21.74;100.00;98417.41;5137112;28;20621;-65
2022/07/21 06:56:38;;;;;;;22.08;20.27;;;20.80;99.90;;;21.57;100.00;98424.84;5144295;28;20204;-63
2022/07/21 06:59:11;;;;;;;20.50;18.90;;;20.70;99.90;;;21.63;100.00;98418.88;5135493;28;20192;-64
2022/07/21 07:01:46;;;;;;;21.52;19.73;;;20.70;99.90;;;21.92;100.00;98427.34;5134699;28;20263;-62
2022/07/21 07:04:19;;;;;;;21.52;19.63;;;21.00;99.90;;;21.96;100.00;98428.28;5144480;28;20238;-63
2022/07/21 07:06:55;;;;;;;21.27;19.42;;;21.10;99.90;;;22.10;100.00;98425.97;5138290;28;20204;-64
2022/07/21 07:09:28;;;;;;;20.33;18.52;;;21.10;99.90;;;22.12;100.00;98429.47;5131436;28;20480;-64
2022/07/21 07:12:03;;;;;;;20.95;19.00;;;21.20;99.90;;;21.85;98.47;98432.38;5136244;28;20308;-64
2022/07/21 07:14:56;;;;;;;20.55;18.85;;;21.10;99.90;;;21.96;99.50;98434.38;5136148;28;20247;-64
2022/07/21 07:17:31;;;;;;;20.65;18.98;;;21.10;99.90;;;22.05;97.50;98433.69;5139542;28;20267;-64
2022/07/21 07:20:07;;;;;;;20.27;18.58;;;21.20;99.90;;;22.67;99.27;98436.69;5136477;28;20274;-63
2022/07/21 07:22:40;;;;;;;18.98;17.45;;;21.80;99.90;;;23.50;96.05;98432.88;5136041;28;20944;-63
2022/07/21 07:25:16;;;;;;;19.38;17.58;;;22.50;99.90;;;23.87;91.09;98432.56;5139217;28;20672;-64
2022/07/21 07:27:51;;;;;;;18.52;16.92;;;22.80;99.90;;;23.90;87.27;98428.25;5136318;28;20231;-64
2022/07/21 07:30:25;;;;;;;18.35;16.75;;;22.80;99.90;;;23.57;88.19;98428.59;5137680;28;20739;-64
2022/07/21 07:32:59;;;;;;;17.70;16.30;;;22.50;99.90;;;23.51;85.70;98423.31;5133634;28;20220;-64
2022/07/21 07:35:32;;;;;;;17.13;15.73;;;22.40;99.90;;;23.72;89.57;98414.94;5139565;28;20546;-61
2022/07/21 07:38:05;;;;;;;16.23;14.88;;;22.60;99.90;;;24.22;93.24;98426.03;5143969;28;20200;-64
2022/07/21 07:40:39;;;;;;;15.80;14.57;;;22.90;99.90;;;24.82;88.15;98428.44;5133424;28;20212;-63
2022/07/21 07:43:12;;;;;;;15.02;13.82;;;23.40;99.90;;;25.04;79.46;98421.66;5128562;28;20231;-62
2022/07/21 07:45:45;;;;;;;15.10;14.00;;;23.50;99.90;;;24.95;74.59;98422.44;5133002;28;20278;-64
2022/07/21 07:48:20;;;;;;;15.30;14.07;;;23.40;99.90;;;24.68;76.15;98426.56;5134780;28;20249;-62
2022/07/21 07:50:53;;;;;;;16.33;15.05;;;23.30;99.90;;;24.46;77.28;98432.41;5137602;28;20257;-62
2022/07/21 07:53:26;;;;;;;15.15;13.85;;;23.00;99.90;;;24.56;80.66;98422.97;5136028;28;20636;-62
2022/07/21 07:55:59;;;;;;;15.43;14.13;;;23.00;99.90;;;24.48;78.41;98423.75;5145769;28;20238;-61
2022/07/21 07:58:32;;;;;;;14.15;13.05;;;22.90;99.90;;;24.51;79.57;98428.13;5132095;28;20228;-63
2022/07/21 08:01:06;;;;;;;14.38;13.27;;;23.00;99.90;;;24.76;76.58;98424.03;5140245;28;20251;-63
2022/07/21 08:03:42;;;;;;;15.05;13.65;;;23.10;99.90;;;24.69;76.32;98428.31;5133363;28;20225;-62
2022/07/21 08:06:15;;;;;;;14.30;13.15;;;23.10;99.90;;;25.03;78.49;98418.16;5133615;28;20627;-61
2022/07/21 08:08:48;;;;;;;14.73;13.55;;;23.50;99.90;;;25.69;77.02;98423.91;5139742;28;20223;-61
2022/07/21 08:11:21;;;;;;;13.80;12.80;;;23.90;99.90;;;26.00;72.49;98421.47;5137376;28;20714;-62
2022/07/21 08:13:54;;;;;;;14.23;13.23;;;24.20;99.90;;;25.57;71.03;98426.44;5141905;28;20770;-63
2022/07/21 08:16:29;;;;;;;14.70;13.60;;;24.00;99.90;;;25.35;71.65;98436.78;5133169;28;20211;-62
2022/07/21 08:19:03;;;;;;;14.82;13.65;;;23.80;99.90;;;25.06;72.52;98433.88;5136941;28;20199;-62
2022/07/21 08:21:40;;;;;;;14.90;13.80;;;23.60;99.90;;;25.10;74.15;98430.44;5137934;28;20235;-60
2022/07/21 08:24:33;;;;;;;13.48;12.48;;;23.60;99.90;;;25.00;75.73;98425.97;5132887;28;20289;-60
2022/07/21 08:27:06;;;;;;;15.30;13.82;;;23.50;99.90;;;24.97;76.77;98417.25;5137913;28;20241;-62
2022/07/21 08:32:24;;;;;;;14.05;12.95;;;23.40;99.90;;;25.14;74.07;98426.13;5306196;27;20588;-60
2022/07/21 08:34:57;;;;;;;14.77;13.60;;;23.80;99.90;;;25.44;75.30;98420.28;5285226;28;20224;-59
2022/07/21 08:37:30;;;;;;;14.00;12.90;;;24.30;99.90;;;25.96;73.87;98415.34;5280391;28;20318;-61
2022/07/21 08:40:05;;;;;;;13.55;12.45;;;24.70;99.90;;;26.19;71.77;98422.44;5281783;28;20552;-61
2022/07/21 08:42:38;;;;;;;13.60;12.50;;;25.00;99.90;;;26.35;71.24;98426.84;5274385;28;20242;-59
2022/07/21 08:45:11;;;;;;;13.43;12.43;;;25.10;99.90;;;26.24;65.70;98421.59;5275180;28;20715;-59
2022/07/21 08:47:46;;;;;;;13.60;12.60;;;24.90;99.90;;;25.84;65.43;98425.78;5272883;28;20231;-62
2022/07/21 08:50:20;;;;;;;12.57;11.57;;;24.50;99.90;;;25.30;68.40;98421.91;5276323;28;20271;-62
2022/07/21 08:52:53;;;;;;;13.45;12.25;;;24.20;99.90;;;25.35;72.57;98425.41;5276314;28;20226;-59
2022/07/21 08:55:34;;;;;;;13.35;12.20;;;24.00;99.90;;;25.47;70.95;98419.38;5276674;28;20206;-61
2022/07/21 08:58:10;;;;;;;12.80;11.82;;;24.20;99.90;;;25.60;72.22;98422.09;5281111;28;20780;-61
2022/07/21 09:00:49;;;;;;;11.90;10.93;;;24.20;99.90;;;25.62;68.60;98424.75;5274562;28;20194;-58
2022/07/21 09:03:26;;;;;;;12.65;11.75;;;24.20;99.90;;;25.60;72.38;98427.34;5273376;28;20203;-60
2022/07/21 09:06:07;;;;;;;13.02;12.02;;;24.10;99.90;;;25.21;68.68;98429.66;5275485;28;20210;-59
2022/07/21 09:08:43;;;;;;;13.10;11.93;;;23.80;99.90;;;25.17;69.66;98427.03;5279332;28;20199;-61
2022/07/21 09:11:20;;;;;;;12.40;11.32;;;23.80;99.90;;;24.91;67.12;98418.06;5269680;28;20250;-59
2022/07/21 09:14:08;;;;;;;12.90;11.85;;;23.70;99.90;;;25.25;72.71;98419.25;5280749;28;20654;-60
2022/07/21 09:16:43;;;;;;;12.93;11.82;;;24.10;99.90;;;25.59;69.08;98415.13;5278689;28;20252;-58
2022/07/21 09:19:22;;;;;;;12.60;11.60;;;24.60;99.90;;;25.59;67.90;98404.66;5286031;28;20194;-57
2022/07/21 09:21:57;;;;;;;12.88;11.77;;;25.00;99.90;;;26.17;67.22;98418.94;5274624;28;20222;-58
2022/07/21 09:24:37;;;;;;;11.73;10.77;;;25.40;99.90;;;26.20;63.46;98408.47;5280151;28;20251;-55
2022/07/21 09:27:13;;;;;;;11.25;10.30;;;25.40;99.90;;;26.27;62.42;98410.25;5277523;28;20202;-58
2022/07/21 09:29:48;;;;;;;11.07;10.18;;;25.40;99.90;;;26.57;60.87;98408.59;5273225;28;20257;-60
2022/07/21 09:32:25;;;;;;;11.38;10.52;;;25.60;99.90;;;26.57;60.26;98413.84;5269265;28;20540;-60
2022/07/21 09:35:05;;;;;;;10.90;10.10;;;25.60;99.90;;;26.82;61.49;98409.53;5277098;28;20647;-57
2022/07/21 09:37:41;;;;;;;11.57;10.68;;;25.80;99.90;;;26.82;60.82;98409.53;5282808;28;20202;-59
2022/07/21 09:40:15;;;;;;;11.07;10.07;;;26.00;99.90;;;26.79;60.50;98413.00;5281643;28;20194;-58
2022/07/21 09:42:51;;;;;;;11.05;10.10;;;25.70;99.90;;;26.56;60.60;98412.97;5273490;28;20219;-57
2022/07/21 09:45:26;;;;;;;11.00;10.10;;;25.60;99.90;;;26.48;60.76;98407.66;5264721;28;20199;-56
2022/07/21 09:47:59;;;;;;;11.10;10.10;;;25.40;99.90;;;26.38;60.77;98413.75;5270430;28;20594;-55
2022/07/21 09:50:52;;;;;;;10.75;9.85;;;25.40;99.90;;;26.51;61.51;98405.09;5263947;28;20258;-55
2022/07/21 09:53:26;;;;;;;10.80;10.00;;;25.70;99.90;;;26.71;60.53;98401.63;5261261;28;20616;-56
2022/07/21 09:55:59;;;;;;;10.90;10.10;;;26.00;99.90;;;26.94;60.94;98404.28;5257831;28;20317;-60
2022/07/21 09:58:32;;;;;;;10.88;9.98;;;26.30;99.90;;;26.92;60.06;98406.88;5259865;28;20674;-60
2022/07/21 10:01:05;;;;;;;10.75;9.93;;;26.40;99.90;;;27.04;59.38;98413.00;5263273;28;20632;-60
2022/07/21 10:03:39;;;;;;;11.35;10.45;;;26.40;99.90;;;26.94;59.10;98420.88;5259819;28;20659;-60
2022/07/21 10:06:17;;;;;;;10.82;10.02;;;26.10;99.90;;;26.83;57.41;98414.75;5268875;28;20195;-60
2022/07/21 10:08:50;;;;;;;10.95;10.15;;;25.90;99.90;;;26.64;59.24;98410.34;5260152;28;20195;-60
2022/07/21 10:11:26;;;;;;;11.18;10.38;;;25.60;99.90;;;26.64;61.97;98410.34;5267836;28;20219;-59
2022/07/21 10:14:03;;;;;;;11.35;10.48;;;25.50;99.90;;;26.57;62.31;98403.34;5251559;28;20279;-58
2022/07/21 10:16:36;;;;;;;11.55;10.70;;;25.40;99.90;;;26.51;61.40;98404.22;5263422;28;20235;-58
2022/07/21 10:19:16;;;;;;;10.32;9.52;;;25.40;99.90;;;26.69;61.19;98400.75;5258521;28;20207;-58
2022/07/21 10:22:01;;;;;;;11.05;10.13;;;25.80;99.90;;;26.92;55.79;98400.75;5258713;28;20756;-58
2022/07/21 10:24:34;;;;;;;10.55;9.75;;;26.10;99.90;;;26.99;58.00;98391.16;5259419;28;20245;-60
2022/07/21 10:27:11;;;;;;;10.02;9.23;;;26.10;99.90;;;27.09;58.28;98400.78;5267244;28;20629;-57
2022/07/21 10:30:07;;;;;;;9.98;9.18;;;26.10;99.90;;;27.18;56.81;98398.16;5269154;28;20252;-59
2022/07/21 10:32:51;;;;;;;10.15;9.35;;;26.10;99.90;;;27.13;56.27;98406.03;5253315;28;20292;-59
2022/07/21 10:35:29;;;;;;;9.88;8.98;;;26.10;99.90;;;27.05;56.49;98404.28;5253756;28;20329;-58
2022/07/21 10:38:04;;;;;;;10.35;9.55;;;25.90;99.90;;;26.83;58.98;98401.63;5258954;28;20191;-58